Time,TemperatureF,DewpointF,PressureIn,WindDirection,WindDirectionDegrees,WindSpeedMPH,WindSpeedGustMPH,Humidity,HourlyPrecipIn,Conditions,Clouds,dailyrainin,SoftwareType,DateUTC
2013-12-27 00:02:00,23.7,21.7,30.35,South,180,0.0,2.0,92,0.00,,,0.00,meteohub,2013-12-27 05:02:00,
2013-12-27 00:06:00,23.7,21.7,30.35,South,180,0.0,2.0,92,0.00,,,0.00,meteohub,2013-12-27 05:06:00,
2013-12-27 00:07:00,23.7,21.7,30.35,South,180,0.0,2.0,92,0.00,,,0.00,meteohub,2013-12-27 05:07:00,
2013-12-27 00:09:00,23.5,21.4,30.35,South,180,0.0,2.0,91,0.00,,,0.00,meteohub,2013-12-27 05:09:00,
2013-12-27 00:12:00,23.5,21.6,30.36,South,180,0.0,1.0,92,0.00,,,0.00,meteohub,2013-12-27 05:12:00,
2013-12-27 00:15:00,23.4,21.4,30.35,South,180,0.0,1.0,92,0.00,,,0.00,meteohub,2013-12-27 05:15:00,
2013-12-27 00:21:00,23.4,21.4,30.35,South,180,1.0,2.0,92,0.00,,,0.00,meteohub,2013-12-27 05:21:00,
2013-12-27 00:27:00,23.4,21.4,30.35,South,180,0.0,2.0,92,0.00,,,0.00,meteohub,2013-12-27 05:27:00,
2013-12-27 00:32:00,23.2,21.2,30.35,South,180,1.0,2.0,92,0.00,,,0.00,meteohub,2013-12-27 05:32:00,
2013-12-27 00:37:00,23.0,21.0,30.35,South,180,0.0,1.0,92,0.00,,,0.00,meteohub,2013-12-27 05:37:00,
2013-12-27 00:42:00,23.0,21.0,30.35,South,180,1.0,2.0,92,0.00,,,0.00,meteohub,2013-12-27 05:42:00,
2013-12-27 00:47:00,23.0,21.0,30.35,South,180,0.0,2.0,92,0.00,,,0.00,meteohub,2013-12-27 05:47:00,
2013-12-27 00:52:00,23.0,21.0,30.35,South,180,0.0,2.0,92,0.00,,,0.00,meteohub,2013-12-27 05:52:00,
2013-12-27 00:57:00,22.6,20.7,30.35,South,180,0.0,2.0,92,0.00,,,0.00,meteohub,2013-12-27 05:57:00,
2013-12-27 01:02:00,22.6,20.7,30.35,South,180,0.0,0.0,92,0.00,,,0.00,meteohub,2013-12-27 06:02:00,
2013-12-27 01:07:00,22.6,20.7,30.35,South,180,0.0,0.0,92,0.00,,,0.00,meteohub,2013-12-27 06:07:00,
2013-12-27 01:12:00,22.5,20.7,30.35,South,180,2.0,2.0,93,0.00,,,0.00,meteohub,2013-12-27 06:12:00,
2013-12-27 01:17:00,22.3,20.5,30.36,South,180,1.0,2.0,93,0.00,,,0.00,meteohub,2013-12-27 06:17:00,
2013-12-27 01:22:00,22.5,20.7,30.35,South,180,1.0,2.0,93,0.00,,,0.00,meteohub,2013-12-27 06:22:00,
2013-12-27 01:27:00,22.5,20.7,30.35,South,180,1.0,2.0,93,0.00,,,0.00,meteohub,2013-12-27 06:27:00,
2013-12-27 01:32:00,22.1,20.3,30.35,South,180,1.0,2.0,93,0.00,,,0.00,meteohub,2013-12-27 06:32:00,
2013-12-27 01:37:00,22.1,20.3,30.35,South,180,1.0,2.0,93,0.00,,,0.00,meteohub,2013-12-27 06:37:00,
2013-12-27 01:42:00,22.1,20.3,30.35,South,180,1.0,2.0,93,0.00,,,0.00,meteohub,2013-12-27 06:42:00,
2013-12-27 01:47:00,21.9,20.1,30.36,South,180,1.0,2.0,93,0.00,,,0.00,meteohub,2013-12-27 06:47:00,
2013-12-27 01:52:00,21.9,20.1,30.36,South,180,0.0,1.0,93,0.00,,,0.00,meteohub,2013-12-27 06:52:00,
2013-12-27 01:57:00,21.9,20.1,30.36,South,180,0.0,1.0,93,0.00,,,0.00,meteohub,2013-12-27 06:57:00,
2013-12-27 02:02:00,21.7,20.1,30.36,South,180,0.0,1.0,93,0.00,,,0.00,meteohub,2013-12-27 07:02:00,
2013-12-27 02:07:00,21.6,19.9,30.36,South,180,0.0,0.0,93,0.00,,,0.00,meteohub,2013-12-27 07:07:00,
2013-12-27 02:12:00,21.6,19.9,30.36,South,180,2.0,0.0,93,0.00,,,0.00,meteohub,2013-12-27 07:12:00,
2013-12-27 02:17:00,21.4,19.8,30.36,South,180,1.0,2.0,93,0.00,,,0.00,meteohub,2013-12-27 07:17:00,
2013-12-27 02:22:00,21.4,19.8,30.36,South,180,0.0,2.0,93,0.00,,,0.00,meteohub,2013-12-27 07:22:00,
2013-12-27 02:27:00,21.6,20.1,30.36,South,180,1.0,2.0,94,0.00,,,0.00,meteohub,2013-12-27 07:27:00,
2013-12-27 02:32:00,21.6,20.1,30.36,South,180,2.0,2.0,94,0.00,,,0.00,meteohub,2013-12-27 07:32:00,
2013-12-27 02:37:00,21.2,19.8,30.36,South,180,1.0,2.0,94,0.00,,,0.00,meteohub,2013-12-27 07:37:00,
2013-12-27 02:42:00,21.2,19.8,30.36,South,180,0.0,2.0,94,0.00,,,0.00,meteohub,2013-12-27 07:42:00,
2013-12-27 02:47:00,21.2,19.6,30.36,South,180,0.0,2.0,93,0.00,,,0.00,meteohub,2013-12-27 07:47:00,
2013-12-27 02:52:00,21.2,19.8,30.36,South,180,1.0,1.0,94,0.00,,,0.00,meteohub,2013-12-27 07:52:00,
2013-12-27 02:57:00,21.2,19.8,30.36,South,180,0.0,1.0,94,0.00,,,0.00,meteohub,2013-12-27 07:57:00,
2013-12-27 03:02:00,21.2,19.8,30.37,South,180,0.0,1.0,94,0.00,,,0.00,meteohub,2013-12-27 08:02:00,
2013-12-27 03:07:00,21.0,19.6,30.36,South,180,0.0,1.0,94,0.00,,,0.00,meteohub,2013-12-27 08:07:00,
2013-12-27 03:12:00,21.0,19.6,30.37,South,180,0.0,0.0,94,0.00,,,0.00,meteohub,2013-12-27 08:12:00,
2013-12-27 03:17:00,21.0,19.6,30.36,South,180,0.0,0.0,94,0.00,,,0.00,meteohub,2013-12-27 08:17:00,
2013-12-27 03:22:00,20.8,19.4,30.37,South,180,0.0,0.0,94,0.00,,,0.00,meteohub,2013-12-27 08:22:00,
2013-12-27 03:27:00,20.8,19.4,30.37,South,180,0.0,0.0,94,0.00,,,0.00,meteohub,2013-12-27 08:27:00,
2013-12-27 03:32:00,21.0,19.6,30.37,South,180,0.0,0.0,94,0.00,,,0.00,meteohub,2013-12-27 08:32:00,
2013-12-27 03:38:00,20.8,19.4,30.37,South,180,0.0,0.0,94,0.00,,,0.00,meteohub,2013-12-27 08:38:00,
2013-12-27 03:44:00,20.8,19.4,30.37,South,180,0.0,0.0,94,0.00,,,0.00,meteohub,2013-12-27 08:44:00,
2013-12-27 03:50:00,20.8,19.4,30.37,South,180,0.0,1.0,94,0.00,,,0.00,meteohub,2013-12-27 08:50:00,
2013-12-27 03:56:00,20.7,19.2,30.37,South,180,0.0,1.0,94,0.00,,,0.00,meteohub,2013-12-27 08:56:00,
2013-12-27 04:05:00,20.7,19.2,30.37,South,180,0.0,1.0,94,0.00,,,0.00,meteohub,2013-12-27 09:05:00,
2013-12-27 04:11:00,20.7,19.2,30.38,South,180,1.0,0.0,94,0.00,,,0.00,meteohub,2013-12-27 09:11:00,
2013-12-27 04:17:00,20.7,19.2,30.37,South,180,0.0,1.0,94,0.00,,,0.00,meteohub,2013-12-27 09:17:00,
2013-12-27 04:22:00,20.7,19.2,30.37,South,180,0.0,1.0,94,0.00,,,0.00,meteohub,2013-12-27 09:22:00,
2013-12-27 04:27:00,20.7,19.2,30.38,South,180,0.0,1.0,94,0.00,,,0.00,meteohub,2013-12-27 09:27:00,
2013-12-27 04:32:00,20.7,19.2,30.37,South,180,0.0,1.0,94,0.00,,,0.00,meteohub,2013-12-27 09:32:00,
2013-12-27 04:37:00,20.7,19.2,30.37,South,180,0.0,1.0,94,0.00,,,0.00,meteohub,2013-12-27 09:37:00,
2013-12-27 04:42:00,20.7,19.2,30.38,South,180,0.0,0.0,94,0.00,,,0.00,meteohub,2013-12-27 09:42:00,
2013-12-27 04:47:00,20.7,19.2,30.38,South,180,0.0,0.0,94,0.00,,,0.00,meteohub,2013-12-27 09:47:00,
2013-12-27 04:52:00,20.5,19.0,30.38,South,180,0.0,0.0,94,0.00,,,0.00,meteohub,2013-12-27 09:52:00,
2013-12-27 04:57:00,20.7,19.2,30.38,South,180,1.0,0.0,94,0.00,,,0.00,meteohub,2013-12-27 09:57:00,
2013-12-27 05:02:00,20.7,19.2,30.38,South,180,1.0,2.0,94,0.00,,,0.00,meteohub,2013-12-27 10:02:00,
2013-12-27 05:07:00,20.7,19.2,30.38,South,180,1.0,2.0,94,0.00,,,0.00,meteohub,2013-12-27 10:07:00,
2013-12-27 05:12:00,20.5,19.0,30.38,South,180,0.0,2.0,94,0.00,,,0.00,meteohub,2013-12-27 10:12:00,
2013-12-27 05:17:00,20.5,19.2,30.38,South,180,0.0,1.0,95,0.00,,,0.00,meteohub,2013-12-27 10:17:00,
2013-12-27 05:22:00,20.5,19.0,30.38,South,180,0.0,1.0,94,0.00,,,0.00,meteohub,2013-12-27 10:22:00,
2013-12-27 05:27:00,20.5,19.2,30.39,South,180,0.0,0.0,95,0.00,,,0.00,meteohub,2013-12-27 10:27:00,
2013-12-27 05:32:00,20.5,19.0,30.39,South,180,0.0,0.0,94,0.00,,,0.00,meteohub,2013-12-27 10:32:00,
2013-12-27 05:37:00,20.5,19.2,30.39,South,180,0.0,0.0,95,0.00,,,0.00,meteohub,2013-12-27 10:37:00,
2013-12-27 05:42:00,20.3,19.0,30.39,South,180,1.0,2.0,95,0.00,,,0.00,meteohub,2013-12-27 10:42:00,
2013-12-27 05:47:00,20.3,19.0,30.39,South,180,0.0,2.0,95,0.00,,,0.00,meteohub,2013-12-27 10:47:00,
2013-12-27 05:53:00,20.3,19.0,30.40,South,180,0.0,2.0,95,0.00,,,0.00,meteohub,2013-12-27 10:53:00,
2013-12-27 05:59:00,20.1,18.7,30.39,South,180,0.0,1.0,94,0.00,,,0.00,meteohub,2013-12-27 10:59:00,
2013-12-27 06:05:00,20.1,18.9,30.39,South,180,0.0,0.0,95,0.00,,,0.00,meteohub,2013-12-27 11:05:00,
2013-12-27 06:11:00,20.1,18.9,30.39,South,180,0.0,0.0,95,0.00,,,0.00,meteohub,2013-12-27 11:11:00,
2013-12-27 06:17:00,19.9,18.7,30.39,South,180,0.0,0.0,95,0.00,,,0.00,meteohub,2013-12-27 11:17:00,
2013-12-27 06:22:00,19.9,18.7,30.39,South,180,0.0,0.0,95,0.00,,,0.00,meteohub,2013-12-27 11:22:00,
2013-12-27 06:27:00,19.9,18.7,30.40,South,180,0.0,0.0,95,0.00,,,0.00,meteohub,2013-12-27 11:27:00,
2013-12-27 06:32:00,19.9,18.7,30.39,South,180,0.0,0.0,95,0.00,,,0.00,meteohub,2013-12-27 11:32:00,
2013-12-27 06:37:00,19.8,18.3,30.40,South,180,0.0,0.0,94,0.00,,,0.00,meteohub,2013-12-27 11:37:00,
2013-12-27 06:42:00,19.8,18.5,30.40,South,180,0.0,0.0,95,0.00,,,0.00,meteohub,2013-12-27 11:42:00,
2013-12-27 06:47:00,19.8,18.5,30.40,South,180,0.0,0.0,95,0.00,,,0.00,meteohub,2013-12-27 11:47:00,
2013-12-27 06:52:00,19.8,18.5,30.40,South,180,0.0,0.0,95,0.00,,,0.00,meteohub,2013-12-27 11:52:00,
2013-12-27 06:57:00,19.6,18.3,30.40,South,180,0.0,0.0,95,0.00,,,0.00,meteohub,2013-12-27 11:57:00,
2013-12-27 07:02:00,19.6,18.3,30.41,South,180,0.0,0.0,95,0.00,,,0.00,meteohub,2013-12-27 12:02:00,
2013-12-27 07:07:00,19.6,18.3,30.40,South,180,0.0,0.0,95,0.00,,,0.00,meteohub,2013-12-27 12:07:00,
2013-12-27 07:12:00,19.6,18.3,30.41,South,180,0.0,0.0,95,0.00,,,0.00,meteohub,2013-12-27 12:12:00,
2013-12-27 07:17:00,19.4,18.1,30.41,South,180,0.0,0.0,95,0.00,,,0.00,meteohub,2013-12-27 12:17:00,
2013-12-27 07:22:00,19.6,18.3,30.40,South,180,0.0,0.0,95,0.00,,,0.00,meteohub,2013-12-27 12:22:00,
2013-12-27 07:27:00,19.6,18.3,30.41,South,180,0.0,0.0,95,0.00,,,0.00,meteohub,2013-12-27 12:27:00,
2013-12-27 07:32:00,19.6,18.3,30.41,South,180,0.0,0.0,95,0.00,,,0.00,meteohub,2013-12-27 12:32:00,
2013-12-27 07:37:00,19.6,18.3,30.40,South,180,0.0,0.0,95,0.00,,,0.00,meteohub,2013-12-27 12:37:00,
2013-12-27 07:42:00,19.6,18.3,30.41,South,180,0.0,0.0,95,0.00,,,0.00,meteohub,2013-12-27 12:42:00,
2013-12-27 07:47:00,19.6,18.3,30.41,South,180,0.0,0.0,95,0.00,,,0.00,meteohub,2013-12-27 12:47:00,
2013-12-27 07:52:00,19.6,18.3,30.41,South,180,0.0,0.0,95,0.00,,,0.00,meteohub,2013-12-27 12:52:00,
2013-12-27 07:57:00,19.8,18.5,30.41,South,180,0.0,0.0,95,0.00,,,0.00,meteohub,2013-12-27 12:57:00,
2013-12-27 08:02:00,20.1,18.9,30.41,South,180,0.0,0.0,95,0.00,,,0.00,meteohub,2013-12-27 13:02:00,
2013-12-27 08:07:00,20.3,19.0,30.41,South,180,0.0,0.0,95,0.00,,,0.00,meteohub,2013-12-27 13:07:00,
2013-12-27 08:12:00,20.5,19.2,30.41,South,180,0.0,0.0,95,0.00,,,0.00,meteohub,2013-12-27 13:12:00,
2013-12-27 08:17:00,20.7,19.4,30.41,South,180,0.0,0.0,95,0.00,,,0.00,meteohub,2013-12-27 13:17:00,
2013-12-27 08:22:00,21.0,19.8,30.41,South,180,0.0,0.0,95,0.00,,,0.00,meteohub,2013-12-27 13:22:00,
2013-12-27 08:27:00,21.6,20.7,30.42,South,180,0.0,0.0,96,0.00,,,0.00,meteohub,2013-12-27 13:27:00,
2013-12-27 08:32:00,22.1,21.2,30.42,South,180,0.0,0.0,96,0.00,,,0.00,meteohub,2013-12-27 13:32:00,
2013-12-27 08:37:00,22.6,21.7,30.43,South,180,0.0,0.0,96,0.00,,,0.00,meteohub,2013-12-27 13:37:00,
2013-12-27 08:42:00,23.0,22.1,30.42,South,180,0.0,0.0,96,0.00,,,0.00,meteohub,2013-12-27 13:42:00,
2013-12-27 08:47:00,23.5,22.8,30.43,South,180,0.0,0.0,97,0.00,,,0.00,meteohub,2013-12-27 13:47:00,
2013-12-27 08:52:00,24.3,23.5,30.43,South,180,0.0,0.0,97,0.00,,,0.00,meteohub,2013-12-27 13:52:00,
2013-12-27 08:57:00,25.2,24.4,30.43,South,180,0.0,0.0,97,0.00,,,0.00,meteohub,2013-12-27 13:57:00,
2013-12-27 09:02:00,26.1,25.3,30.43,South,180,0.0,0.0,97,0.00,,,0.00,meteohub,2013-12-27 14:02:00,
2013-12-27 09:07:00,27.0,26.4,30.43,South,180,0.0,0.0,98,0.00,,,0.00,meteohub,2013-12-27 14:07:00,
2013-12-27 09:12:00,27.9,27.3,30.43,South,180,0.0,0.0,98,0.00,,,0.00,meteohub,2013-12-27 14:12:00,
2013-12-27 09:17:00,28.8,28.2,30.43,South,180,0.0,0.0,98,0.00,,,0.00,meteohub,2013-12-27 14:17:00,
2013-12-27 09:22:00,30.0,29.5,30.43,South,180,0.0,0.0,98,0.00,,,0.00,meteohub,2013-12-27 14:22:00,
2013-12-27 09:27:00,30.7,30.2,30.44,South,180,0.0,0.0,98,0.00,,,0.00,meteohub,2013-12-27 14:27:00,
2013-12-27 09:32:00,31.3,30.6,30.44,South,180,0.0,0.0,97,0.00,,,0.00,meteohub,2013-12-27 14:32:00,
2013-12-27 09:37:00,32.2,31.5,30.44,South,180,0.0,0.0,97,0.00,,,0.00,meteohub,2013-12-27 14:37:00,
2013-12-27 09:42:00,32.7,32.0,30.45,West,270,1.0,0.0,97,0.00,,,0.00,meteohub,2013-12-27 14:42:00,
2013-12-27 09:47:00,33.1,31.8,30.45,SW,225,0.0,2.0,95,0.00,,,0.00,meteohub,2013-12-27 14:47:00,
2013-12-27 09:52:00,33.6,32.0,30.45,South,180,1.0,2.0,94,0.00,,,0.00,meteohub,2013-12-27 14:52:00,
2013-12-27 09:57:00,34.3,32.5,30.45,SW,225,0.0,2.0,93,0.00,,,0.00,meteohub,2013-12-27 14:57:00,
2013-12-27 10:02:00,35.4,33.1,30.45,South,180,0.0,1.0,91,0.00,,,0.00,meteohub,2013-12-27 15:02:00,
2013-12-27 10:07:00,36.3,33.1,30.45,South,180,1.0,2.0,88,0.00,,,0.00,meteohub,2013-12-27 15:07:00,
2013-12-27 10:12:00,37.2,33.8,30.45,SE,135,1.0,2.0,87,0.00,,,0.00,meteohub,2013-12-27 15:12:00,
2013-12-27 10:17:00,38.3,34.5,30.45,NW,315,2.0,2.0,86,0.00,,,0.00,meteohub,2013-12-27 15:17:00,
2013-12-27 10:22:00,39.7,35.1,30.45,SE,135,1.0,2.0,83,0.00,,,0.00,meteohub,2013-12-27 15:22:00,
2013-12-27 10:27:00,41.0,35.1,30.45,NE,45,3.0,3.0,79,0.00,,,0.00,meteohub,2013-12-27 15:27:00,
2013-12-27 10:32:00,42.1,35.1,30.45,NE,45,2.0,3.0,76,0.00,,,0.00,meteohub,2013-12-27 15:32:00,
2013-12-27 10:37:00,43.0,34.2,30.45,NW,315,3.0,3.0,71,0.00,,,0.00,meteohub,2013-12-27 15:37:00,
2013-12-27 10:42:00,44.1,34.2,30.45,SE,135,2.0,3.0,68,0.00,,,0.00,meteohub,2013-12-27 15:42:00,
2013-12-27 10:47:00,44.6,33.3,30.44,North,0,2.0,3.0,64,0.00,,,0.00,meteohub,2013-12-27 15:47:00,
2013-12-27 10:52:00,45.1,30.0,30.44,East,90,2.0,3.0,55,0.00,,,0.00,meteohub,2013-12-27 15:52:00,
2013-12-27 10:57:00,45.7,29.1,30.44,NW,315,4.0,4.0,52,0.00,,,0.00,meteohub,2013-12-27 15:57:00,
2013-12-27 11:02:00,46.2,28.6,30.44,West,270,3.0,4.0,50,0.00,,,0.00,meteohub,2013-12-27 16:02:00,
2013-12-27 11:07:00,46.8,28.0,30.43,NE,45,2.0,4.0,48,0.00,,,0.00,meteohub,2013-12-27 16:07:00,
2013-12-27 11:12:00,47.5,26.6,30.44,SE,135,2.0,4.0,44,0.00,,,0.00,meteohub,2013-12-27 16:12:00,
2013-12-27 11:17:00,47.5,24.4,30.43,SE,135,2.0,4.0,40,0.00,,,0.00,meteohub,2013-12-27 16:17:00,
2013-12-27 11:22:00,47.7,25.7,30.44,SE,135,2.0,3.0,42,0.00,,,0.00,meteohub,2013-12-27 16:22:00,
2013-12-27 11:27:00,48.0,25.5,30.44,North,0,3.0,3.0,41,0.00,,,0.00,meteohub,2013-12-27 16:27:00,
2013-12-27 11:32:00,48.4,25.2,30.44,NE,45,2.0,3.0,40,0.00,,,0.00,meteohub,2013-12-27 16:32:00,
2013-12-27 11:37:00,48.4,20.7,30.44,NW,315,4.0,4.0,33,0.00,,,0.00,meteohub,2013-12-27 16:37:00,
2013-12-27 11:42:00,48.4,21.4,30.43,North,0,4.0,5.0,34,0.00,,,0.00,meteohub,2013-12-27 16:42:00,
2013-12-27 11:47:00,48.2,19.8,30.43,South,180,2.0,5.0,32,0.00,,,0.00,meteohub,2013-12-27 16:47:00,
2013-12-27 11:52:00,48.2,20.5,30.42,SE,135,2.0,5.0,33,0.00,,,0.00,meteohub,2013-12-27 16:52:00,
2013-12-27 11:57:00,48.6,19.2,30.42,NE,45,3.0,4.0,31,0.00,,,0.00,meteohub,2013-12-27 16:57:00,
2013-12-27 12:02:00,48.9,20.3,30.42,NE,45,2.0,4.0,32,0.00,,,0.00,meteohub,2013-12-27 17:02:00,
2013-12-27 12:07:00,49.6,19.4,30.42,NW,315,3.0,4.0,30,0.00,,,0.00,meteohub,2013-12-27 17:07:00,
2013-12-27 12:12:00,50.0,19.0,30.41,NW,315,2.0,4.0,29,0.00,,,0.00,meteohub,2013-12-27 17:12:00,
2013-12-27 12:17:00,50.4,16.7,30.41,SW,225,3.0,4.0,26,0.00,,,0.00,meteohub,2013-12-27 17:17:00,
2013-12-27 12:22:00,50.2,16.5,30.41,South,180,2.0,4.0,26,0.00,,,0.00,meteohub,2013-12-27 17:22:00,
2013-12-27 12:27:00,50.5,17.8,30.41,North,0,3.0,4.0,27,0.00,,,0.00,meteohub,2013-12-27 17:27:00,
2013-12-27 12:32:00,50.7,14.2,30.41,NE,45,4.0,4.0,23,0.00,,,0.00,meteohub,2013-12-27 17:32:00,
2013-12-27 12:37:00,50.5,14.2,30.41,NE,45,3.0,5.0,23,0.00,,,0.00,meteohub,2013-12-27 17:37:00,
2013-12-27 12:42:00,50.7,12.2,30.40,NE,45,4.0,5.0,21,0.00,,,0.00,meteohub,2013-12-27 17:42:00,
2013-12-27 12:47:00,50.9,17.2,30.40,SE,135,1.0,5.0,26,0.00,,,0.00,meteohub,2013-12-27 17:47:00,
2013-12-27 12:52:00,51.4,15.8,30.40,SW,225,2.0,4.0,24,0.00,,,0.00,meteohub,2013-12-27 17:52:00,
2013-12-27 12:57:00,52.0,16.3,30.40,West,270,3.0,4.0,24,0.00,,,0.00,meteohub,2013-12-27 17:57:00,
2013-12-27 13:02:00,52.0,14.4,30.40,West,270,2.0,4.0,22,0.00,,,0.00,meteohub,2013-12-27 18:02:00,
2013-12-27 13:07:00,52.0,14.4,30.39,SE,135,2.0,4.0,22,0.00,,,0.00,meteohub,2013-12-27 18:07:00,
2013-12-27 13:12:00,52.0,14.4,30.39,East,90,2.0,4.0,22,0.00,,,0.00,meteohub,2013-12-27 18:12:00,
2013-12-27 13:17:00,52.2,15.4,30.39,West,270,2.0,4.0,23,0.00,,,0.00,meteohub,2013-12-27 18:17:00,
2013-12-27 13:22:00,52.5,15.8,30.39,East,90,2.0,4.0,23,0.00,,,0.00,meteohub,2013-12-27 18:22:00,
2013-12-27 13:27:00,52.9,14.0,30.38,East,90,3.0,4.0,21,0.00,,,0.00,meteohub,2013-12-27 18:27:00,
2013-12-27 13:32:00,52.7,13.8,30.38,West,270,2.0,3.0,21,0.00,,,0.00,meteohub,2013-12-27 18:32:00,
2013-12-27 13:37:00,52.5,13.6,30.38,SW,225,2.0,3.0,21,0.00,,,0.00,meteohub,2013-12-27 18:37:00,
2013-12-27 13:42:00,52.5,11.5,30.38,South,180,4.0,4.0,19,0.00,,,0.00,meteohub,2013-12-27 18:42:00,
2013-12-27 13:47:00,52.2,12.2,30.38,SW,225,2.0,4.0,20,0.00,,,0.00,meteohub,2013-12-27 18:47:00,
2013-12-27 13:52:00,52.2,12.2,30.38,SW,225,2.0,4.0,20,0.00,,,0.00,meteohub,2013-12-27 18:52:00,
2013-12-27 13:57:00,52.3,12.4,30.38,SW,225,3.0,4.0,20,0.00,,,0.00,meteohub,2013-12-27 18:57:00,
2013-12-27 14:02:00,52.5,13.6,30.37,West,270,3.0,4.0,21,0.00,,,0.00,meteohub,2013-12-27 19:02:00,
2013-12-27 14:07:00,52.5,13.6,30.37,NE,45,3.0,4.0,21,0.00,,,0.00,meteohub,2013-12-27 19:07:00,
2013-12-27 14:12:00,52.3,13.5,30.37,NE,45,1.0,4.0,21,0.00,,,0.00,meteohub,2013-12-27 19:12:00,
2013-12-27 14:17:00,52.2,12.2,30.37,East,90,2.0,4.0,20,0.00,,,0.00,meteohub,2013-12-27 19:17:00,
2013-12-27 14:22:00,52.0,12.2,30.37,South,180,2.0,7.0,20,0.00,,,0.00,meteohub,2013-12-27 19:22:00,
2013-12-27 14:27:00,52.0,13.3,30.37,NE,45,2.0,7.0,21,0.00,,,0.00,meteohub,2013-12-27 19:27:00,
2013-12-27 14:32:00,52.0,12.2,30.37,North,0,4.0,4.0,20,0.00,,,0.00,meteohub,2013-12-27 19:32:00,
2013-12-27 14:37:00,51.8,13.1,30.37,North,0,2.0,4.0,21,0.00,,,0.00,meteohub,2013-12-27 19:37:00,
2013-12-27 14:42:00,51.8,14.2,30.37,SW,225,2.0,4.0,22,0.00,,,0.00,meteohub,2013-12-27 19:42:00,
2013-12-27 14:47:00,52.2,14.4,30.36,SW,225,1.0,4.0,22,0.00,,,0.00,meteohub,2013-12-27 19:47:00,
2013-12-27 14:52:00,52.9,11.7,30.36,East,90,2.0,3.0,19,0.00,,,0.00,meteohub,2013-12-27 19:52:00,
2013-12-27 14:57:00,52.7,11.7,30.36,East,90,2.0,3.0,19,0.00,,,0.00,meteohub,2013-12-27 19:57:00,
2013-12-27 15:02:00,52.7,12.7,30.36,East,90,3.0,3.0,20,0.00,,,0.00,meteohub,2013-12-27 20:02:00,
2013-12-27 15:07:00,52.2,13.5,30.36,SW,225,1.0,3.0,21,0.00,,,0.00,meteohub,2013-12-27 20:07:00,
2013-12-27 15:12:00,51.8,14.2,30.36,NW,315,2.0,3.0,22,0.00,,,0.00,meteohub,2013-12-27 20:12:00,
2013-12-27 15:17:00,51.4,13.8,30.37,SW,225,0.0,3.0,22,0.00,,,0.00,meteohub,2013-12-27 20:17:00,
2013-12-27 15:22:00,51.3,13.6,30.37,NNW,338,1.0,3.0,22,0.00,,,0.00,meteohub,2013-12-27 20:22:00,
2013-12-27 15:27:00,51.3,13.6,30.37,NE,45,2.0,3.0,22,0.00,,,0.00,meteohub,2013-12-27 20:27:00,
2013-12-27 15:32:00,51.1,14.5,30.36,SE,135,1.0,2.0,23,0.00,,,0.00,meteohub,2013-12-27 20:32:00,
2013-12-27 15:37:00,50.7,14.2,30.36,SW,225,2.0,2.0,23,0.00,,,0.00,meteohub,2013-12-27 20:37:00,
2013-12-27 15:42:00,50.4,14.0,30.36,West,270,2.0,2.0,23,0.00,,,0.00,meteohub,2013-12-27 20:42:00,
2013-12-27 15:47:00,50.2,15.6,30.36,NW,315,2.0,2.0,25,0.00,,,0.00,meteohub,2013-12-27 20:47:00,
2013-12-27 15:52:00,50.0,15.6,30.37,NW,315,2.0,2.0,25,0.00,,,0.00,meteohub,2013-12-27 20:52:00,
2013-12-27 15:57:00,49.5,16.0,30.36,West,270,1.0,2.0,26,0.00,,,0.00,meteohub,2013-12-27 20:57:00,
2013-12-27 16:02:00,49.5,17.8,30.36,NW,315,2.0,2.0,28,0.00,,,0.00,meteohub,2013-12-27 21:02:00,
2013-12-27 16:07:00,49.1,22.6,30.36,NW,315,1.0,2.0,35,0.00,,,0.00,meteohub,2013-12-27 21:07:00,
2013-12-27 16:12:00,47.7,25.7,30.36,SW,225,2.0,2.0,42,0.00,,,0.00,meteohub,2013-12-27 21:12:00,
2013-12-27 16:17:00,46.4,26.8,30.36,SW,225,2.0,2.0,46,0.00,,,0.00,meteohub,2013-12-27 21:17:00,
2013-12-27 16:22:00,45.0,26.4,30.36,SW,225,2.0,2.0,48,0.00,,,0.00,meteohub,2013-12-27 21:22:00,
2013-12-27 16:27:00,44.1,26.6,30.36,SW,225,2.0,2.0,50,0.00,,,0.00,meteohub,2013-12-27 21:27:00,
2013-12-27 16:32:00,43.2,26.8,30.36,SW,225,2.0,2.0,52,0.00,,,0.00,meteohub,2013-12-27 21:32:00,
2013-12-27 16:37:00,42.3,26.4,30.36,SW,225,2.0,2.0,53,0.00,,,0.00,meteohub,2013-12-27 21:37:00,
2013-12-27 16:42:00,41.4,25.9,30.36,SW,225,2.0,2.0,54,0.00,,,0.00,meteohub,2013-12-27 21:42:00,
2013-12-27 16:47:00,40.8,26.4,30.36,SW,225,2.0,2.0,56,0.00,,,0.00,meteohub,2013-12-27 21:47:00,
2013-12-27 16:52:00,40.1,26.6,30.35,SW,225,2.0,2.0,58,0.00,,,0.00,meteohub,2013-12-27 21:52:00,
2013-12-27 16:57:00,39.6,26.1,30.36,SW,225,2.0,2.0,58,0.00,,,0.00,meteohub,2013-12-27 21:57:00,
2013-12-27 17:02:00,38.8,25.7,30.36,SW,225,2.0,2.0,59,0.00,,,0.00,meteohub,2013-12-27 22:02:00,
2013-12-27 17:07:00,38.1,25.5,30.36,North,0,2.0,2.0,60,0.00,,,0.00,meteohub,2013-12-27 22:07:00,
2013-12-27 17:12:00,37.6,25.3,30.36,North,0,2.0,2.0,61,0.00,,,0.00,meteohub,2013-12-27 22:12:00,
2013-12-27 17:17:00,37.0,25.2,30.36,North,0,2.0,2.0,62,0.00,,,0.00,meteohub,2013-12-27 22:17:00,
2013-12-27 17:22:00,36.5,25.5,30.36,North,0,2.0,2.0,64,0.00,,,0.00,meteohub,2013-12-27 22:22:00,
2013-12-27 17:27:00,36.0,25.3,30.36,North,0,2.0,2.0,65,0.00,,,0.00,meteohub,2013-12-27 22:27:00,
2013-12-27 17:32:00,35.2,25.3,30.36,North,0,2.0,2.0,67,0.00,,,0.00,meteohub,2013-12-27 22:32:00,
2013-12-27 17:37:00,34.7,24.8,30.36,North,0,1.0,2.0,67,0.00,,,0.00,meteohub,2013-12-27 22:37:00,
2013-12-27 17:42:00,34.2,25.0,30.37,North,0,1.0,2.0,69,0.00,,,0.00,meteohub,2013-12-27 22:42:00,
2013-12-27 17:47:00,33.6,23.9,30.36,North,0,1.0,2.0,67,0.00,,,0.00,meteohub,2013-12-27 22:47:00,
2013-12-27 17:52:00,33.1,23.7,30.36,North,0,1.0,2.0,68,0.00,,,0.00,meteohub,2013-12-27 22:52:00,
2013-12-27 17:57:00,32.7,23.4,30.37,North,0,1.0,2.0,68,0.00,,,0.00,meteohub,2013-12-27 22:57:00,
2013-12-27 18:02:00,32.2,22.8,30.38,North,0,1.0,2.0,68,0.00,,,0.00,meteohub,2013-12-27 23:02:00,
2013-12-27 18:07:00,31.8,22.5,30.38,North,0,2.0,2.0,68,0.00,,,0.00,meteohub,2013-12-27 23:07:00,
2013-12-27 18:12:00,31.5,22.5,30.37,North,0,1.0,2.0,69,0.00,,,0.00,meteohub,2013-12-27 23:12:00,
2013-12-27 18:17:00,31.1,22.5,30.37,North,0,2.0,2.0,70,0.00,,,0.00,meteohub,2013-12-27 23:17:00,
2013-12-27 18:22:00,30.7,22.1,30.38,North,0,1.0,2.0,70,0.00,,,0.00,meteohub,2013-12-27 23:22:00,
2013-12-27 18:27:00,30.4,21.7,30.38,North,0,0.0,2.0,70,0.00,,,0.00,meteohub,2013-12-27 23:27:00,
2013-12-27 18:32:00,30.2,22.6,30.38,North,0,2.0,2.0,73,0.00,,,0.00,meteohub,2013-12-27 23:32:00,
2013-12-27 18:37:00,30.0,22.5,30.38,North,0,1.0,2.0,73,0.00,,,0.00,meteohub,2013-12-27 23:37:00,
2013-12-27 18:42:00,29.8,22.3,30.38,North,0,0.0,2.0,73,0.00,,,0.00,meteohub,2013-12-27 23:42:00,
2013-12-27 18:47:00,29.7,22.5,30.38,North,0,1.0,2.0,74,0.00,,,0.00,meteohub,2013-12-27 23:47:00,
2013-12-27 18:52:00,29.5,21.9,30.39,North,0,0.0,2.0,73,0.00,,,0.00,meteohub,2013-12-27 23:52:00,
2013-12-27 18:57:00,29.3,22.3,30.39,North,0,2.0,2.0,75,0.00,,,0.00,meteohub,2013-12-27 23:57:00,
2013-12-27 19:02:00,29.1,22.5,30.38,North,0,2.0,2.0,76,0.00,,,0.00,meteohub,2013-12-28 00:02:00,
2013-12-27 19:07:00,28.9,22.3,30.38,North,0,1.0,2.0,76,0.00,,,0.00,meteohub,2013-12-28 00:07:00,
2013-12-27 19:12:00,28.8,22.1,30.39,North,0,0.0,2.0,76,0.00,,,0.00,meteohub,2013-12-28 00:12:00,
2013-12-27 19:17:00,28.6,21.7,30.39,North,0,0.0,2.0,75,0.00,,,0.00,meteohub,2013-12-28 00:17:00,
2013-12-27 19:22:00,28.6,22.3,30.39,North,0,2.0,2.0,77,0.00,,,0.00,meteohub,2013-12-28 00:22:00,
2013-12-27 19:27:00,28.6,22.3,30.39,North,0,1.0,2.0,77,0.00,,,0.00,meteohub,2013-12-28 00:27:00,
2013-12-27 19:32:00,28.4,22.5,30.40,North,0,1.0,2.0,78,0.00,,,0.00,meteohub,2013-12-28 00:32:00,
2013-12-27 19:37:00,28.4,22.5,30.40,North,0,1.0,2.0,78,0.00,,,0.00,meteohub,2013-12-28 00:37:00,
2013-12-27 19:42:00,28.2,22.8,30.40,North,0,2.0,2.0,80,0.00,,,0.00,meteohub,2013-12-28 00:42:00,
2013-12-27 19:47:00,28.0,22.5,30.40,North,0,0.0,2.0,79,0.00,,,0.00,meteohub,2013-12-28 00:47:00,
2013-12-27 19:52:00,27.9,22.3,30.40,North,0,1.0,2.0,79,0.00,,,0.00,meteohub,2013-12-28 00:52:00,
2013-12-27 19:57:00,28.0,23.0,30.40,North,0,2.0,2.0,81,0.00,,,0.00,meteohub,2013-12-28 00:57:00,
2013-12-27 20:02:00,28.0,23.2,30.40,North,0,1.0,2.0,82,0.00,,,0.00,meteohub,2013-12-28 01:02:00,
2013-12-27 20:07:00,27.7,22.8,30.40,North,0,0.0,2.0,82,0.00,,,0.00,meteohub,2013-12-28 01:07:00,
2013-12-27 20:12:00,27.5,22.5,30.40,North,0,0.0,2.0,81,0.00,,,0.00,meteohub,2013-12-28 01:12:00,
2013-12-27 20:14:00,27.5,22.8,30.40,North,0,1.0,2.0,82,0.00,,,0.00,meteohub,2013-12-28 01:14:00,
2013-12-27 20:20:00,27.3,22.6,30.40,North,0,0.0,2.0,82,0.00,,,0.00,meteohub,2013-12-28 01:20:00,
2013-12-27 20:26:00,27.3,22.6,30.40,North,0,0.0,1.0,82,0.00,,,0.00,meteohub,2013-12-28 01:26:00,
2013-12-27 20:32:00,27.1,22.5,30.41,North,0,0.0,1.0,82,0.00,,,0.00,meteohub,2013-12-28 01:32:00,
2013-12-27 20:37:00,27.1,22.5,30.40,North,0,0.0,0.0,82,0.00,,,0.00,meteohub,2013-12-28 01:37:00,
2013-12-27 20:42:00,27.0,22.8,30.41,North,0,0.0,0.0,84,0.00,,,0.00,meteohub,2013-12-28 01:42:00,
2013-12-27 20:47:00,26.8,22.6,30.41,North,0,1.0,0.0,84,0.00,,,0.00,meteohub,2013-12-28 01:47:00,
2013-12-27 20:52:00,26.6,22.6,30.41,North,0,1.0,2.0,85,0.00,,,0.00,meteohub,2013-12-28 01:52:00,
2013-12-27 20:57:00,26.4,22.3,30.40,North,0,0.0,2.0,84,0.00,,,0.00,meteohub,2013-12-28 01:57:00,
2013-12-27 21:02:00,26.4,22.3,30.40,North,0,0.0,2.0,84,0.00,,,0.00,meteohub,2013-12-28 02:02:00,
2013-12-27 21:07:00,26.4,22.5,30.40,North,0,1.0,1.0,85,0.00,,,0.00,meteohub,2013-12-28 02:07:00,
2013-12-27 21:12:00,26.2,22.3,30.40,North,0,1.0,1.0,85,0.00,,,0.00,meteohub,2013-12-28 02:12:00,
2013-12-27 21:17:00,26.2,22.3,30.40,North,0,2.0,2.0,85,0.00,,,0.00,meteohub,2013-12-28 02:17:00,
2013-12-27 21:22:00,26.2,22.6,30.41,North,0,0.0,2.0,86,0.00,,,0.00,meteohub,2013-12-28 02:22:00,
2013-12-27 21:27:00,26.2,22.6,30.41,North,0,0.0,2.0,86,0.00,,,0.00,meteohub,2013-12-28 02:27:00,
2013-12-27 21:32:00,26.1,22.5,30.40,North,0,2.0,2.0,86,0.00,,,0.00,meteohub,2013-12-28 02:32:00,
2013-12-27 21:37:00,25.9,22.5,30.40,North,0,1.0,2.0,87,0.00,,,0.00,meteohub,2013-12-28 02:37:00,
2013-12-27 21:42:00,25.9,22.3,30.40,North,0,0.0,2.0,86,0.00,,,0.00,meteohub,2013-12-28 02:42:00,
2013-12-27 21:47:00,25.7,22.1,30.40,North,0,0.0,2.0,86,0.00,,,0.00,meteohub,2013-12-28 02:47:00,
2013-12-27 21:52:00,25.5,22.3,30.40,North,0,0.0,1.0,87,0.00,,,0.00,meteohub,2013-12-28 02:52:00,
2013-12-27 21:57:00,25.5,22.3,30.40,North,0,0.0,0.0,87,0.00,,,0.00,meteohub,2013-12-28 02:57:00,
2013-12-27 22:02:00,25.3,22.1,30.40,North,0,0.0,0.0,87,0.00,,,0.00,meteohub,2013-12-28 03:02:00,
2013-12-27 22:07:00,25.2,21.9,30.40,North,0,0.0,0.0,87,0.00,,,0.00,meteohub,2013-12-28 03:07:00,
2013-12-27 22:12:00,25.0,21.7,30.40,North,0,1.0,0.0,87,0.00,,,0.00,meteohub,2013-12-28 03:12:00,
2013-12-27 22:17:00,25.0,21.7,30.40,SW,225,1.0,2.0,87,0.00,,,0.00,meteohub,2013-12-28 03:17:00,
2013-12-27 22:22:00,25.0,21.9,30.41,SW,225,0.0,2.0,88,0.00,,,0.00,meteohub,2013-12-28 03:22:00,
2013-12-27 22:27:00,24.8,21.7,30.40,SW,225,0.0,2.0,88,0.00,,,0.00,meteohub,2013-12-28 03:27:00,
2013-12-27 22:32:00,24.8,22.1,30.40,SW,225,1.0,1.0,89,0.00,,,0.00,meteohub,2013-12-28 03:32:00,
2013-12-27 22:37:00,24.6,21.9,30.40,SW,225,0.0,1.0,89,0.00,,,0.00,meteohub,2013-12-28 03:37:00,
2013-12-27 22:42:00,24.6,21.9,30.40,SW,225,0.0,1.0,89,0.00,,,0.00,meteohub,2013-12-28 03:42:00,
2013-12-27 22:47:00,24.4,21.7,30.40,SW,225,0.0,1.0,89,0.00,,,0.00,meteohub,2013-12-28 03:47:00,
2013-12-27 22:52:00,24.4,21.7,30.40,SW,225,0.0,0.0,89,0.00,,,0.00,meteohub,2013-12-28 03:52:00,
2013-12-27 22:57:00,24.3,21.6,30.40,SW,225,0.0,0.0,89,0.00,,,0.00,meteohub,2013-12-28 03:57:00,
2013-12-27 23:02:00,24.3,21.6,30.40,SW,225,1.0,0.0,89,0.00,,,0.00,meteohub,2013-12-28 04:02:00,
2013-12-27 23:07:00,24.1,21.4,30.40,SW,225,1.0,1.0,89,0.00,,,0.00,meteohub,2013-12-28 04:07:00,
2013-12-27 23:12:00,24.1,21.6,30.40,SW,225,1.0,1.0,90,0.00,,,0.00,meteohub,2013-12-28 04:12:00,
2013-12-27 23:17:00,24.1,21.6,30.40,SW,225,0.0,1.0,90,0.00,,,0.00,meteohub,2013-12-28 04:17:00,
2013-12-27 23:22:00,23.9,21.4,30.40,SW,225,0.0,1.0,90,0.00,,,0.00,meteohub,2013-12-28 04:22:00,
2013-12-27 23:27:00,23.9,21.4,30.39,SW,225,0.0,1.0,90,0.00,,,0.00,meteohub,2013-12-28 04:27:00,
2013-12-27 23:32:00,23.9,21.4,30.39,SW,225,0.0,0.0,90,0.00,,,0.00,meteohub,2013-12-28 04:32:00,
2013-12-27 23:37:00,23.9,21.4,30.39,SW,225,0.0,0.0,90,0.00,,,0.00,meteohub,2013-12-28 04:37:00,
2013-12-27 23:42:00,23.7,21.2,30.39,SW,225,0.0,0.0,90,0.00,,,0.00,meteohub,2013-12-28 04:42:00,
2013-12-27 23:47:00,23.7,21.2,30.40,SW,225,2.0,0.0,90,0.00,,,0.00,meteohub,2013-12-28 04:47:00,
2013-12-27 23:52:00,23.7,21.6,30.39,SW,225,0.0,2.0,91,0.00,,,0.00,meteohub,2013-12-28 04:52:00,
2013-12-27 23:57:00,23.5,21.0,30.40,SW,225,0.0,2.0,90,0.00,,,0.00,meteohub,2013-12-28 04:57:00,